Time;durP1;ratioP1;P1;durP2;ratioP2;P2;SDS_P1;SDS_P2;PMS_P1;PMS_P2;Temp;Humidity;BMP_temperature;BMP_pressure;BME280_temperature;BME280_humidity;BME280_pressure;Samples;Min_cycle;Max_cycle;Signal;HPM_P1;HPM_P2
2021/06/14 00:01:36;;;;;;;;;;;;;;;;;;2127242;67;1218;-71
2021/06/14 00:04:01;;;;;;;;;;;;;;;;;;2127657;67;1182;-69
2021/06/14 00:06:26;;;;;;;;;;;;;;;;;;2126965;67;1242;-71
2021/06/14 00:08:52;;;;;;;;;;;;;;;;;;2125983;67;1341;-70
2021/06/14 00:11:17;;;;;;;;;;;;;;;;;;2125316;67;1312;-72
2021/06/14 00:13:42;;;;;;;;;;;;;;;;;;2127987;67;1120;-72
2021/06/14 00:16:08;;;;;;;;;;;;;;;;;;2125878;59;1970;-70
2021/06/14 00:18:34;;;;;;;;;;;;;;;;;;2125860;67;1176;-70
2021/06/14 00:21:00;;;;;;;;;;;;;;;;;;2126763;59;1227;-73
2021/06/14 00:23:28;;;;;;;;;;;;;;;;;;2127604;67;1152;-70
2021/06/14 00:25:53;;;;;;;;;;;;;;;;;;2125903;67;1189;-72
2021/06/14 00:28:19;;;;;;;;;;;;;;;;;;2126273;67;1306;-69
2021/06/14 00:30:45;;;;;;;;;;;;;;;;;;2127024;67;1286;-69
2021/06/14 00:33:11;;;;;;;;;;;;;;;;;;2126912;67;1089;-69
2021/06/14 00:35:36;;;;;;;;;;;;;;;;;;2125692;67;1924;-72
2021/06/14 00:38:02;;;;;;;;;;;;;;;;;;2127038;67;1178;-72
2021/06/14 00:40:27;;;;;;;;;;;;;;;;;;2126574;67;1057;-69
2021/06/14 00:42:52;;;;;;;;;;;;;;;;;;2127195;67;1274;-72
2021/06/14 00:45:20;;;;;;;;;;;;;;;;;;2126585;59;1190;-70
2021/06/14 00:47:45;;;;;;;;;;;;;;;;;;2127858;67;1241;-72
2021/06/14 00:50:11;;;;;;;;;;;;;;;;;;2125792;67;1664;-68
2021/06/14 00:52:37;;;;;;;;;;;;;;;;;;2127220;67;1237;-70
2021/06/14 00:55:04;;;;;;;;;;;;;;;;;;2125436;67;1934;-70
2021/06/14 00:57:29;;;;;;;;;;;;;;;;;;2126488;67;1230;-69
2021/06/14 00:59:54;;;;;;;;;;;;;;;;;;2127805;67;1144;-73
2021/06/14 01:02:19;;;;;;;;;;;;;;;;;;2126234;67;1090;-68
2021/06/14 01:04:44;;;;;;;;;;;;;;;;;;2127861;67;1118;-69
2021/06/14 01:07:11;;;;;;;;;;;;;;;;;;2126291;59;1273;-69
2021/06/14 01:09:36;;;;;;;;;;;;;;;;;;2127690;67;1163;-69
2021/06/14 01:12:07;;;;;;;;;;;;;;;;;;2126398;67;1168;-71
2021/06/14 01:14:44;;;;;;;;;;;;;;;;;;2127661;67;1984;-70
2021/06/14 01:17:16;;;;;;;;;;;;;;;;;;2126441;67;1244;-71
2021/06/14 01:20:00;;;;;;;;;;;;;;;;;;2127821;67;1186;-70
2021/06/14 01:22:43;;;;;;;;;;;;;;;;;;2126186;67;1072;-72
2021/06/14 01:25:15;;;;;;;;;;;;;;;;;;2125805;67;1194;-72
2021/06/14 01:27:43;;;;;;;;;;;;;;;;;;2127090;67;1159;-71
2021/06/14 01:30:10;;;;;;;;;;;;;;;;;;2125654;67;1223;-72
2021/06/14 01:32:37;;;;;;;;;;;;;;;;;;2126878;67;1182;-71
2021/06/14 01:35:03;;;;;;;;;;;;;;;;;;2127039;67;1931;-73
2021/06/14 01:37:28;;;;;;;;;;;;;;;;;;2126161;67;1166;-71
2021/06/14 01:39:54;;;;;;;;;;;;;;;;;;2127187;67;1123;-72
2021/06/14 01:42:19;;;;;;;;;;;;;;;;;;2128127;67;1704;-70
2021/06/14 01:44:46;;;;;;;;;;;;;;;;;;2127277;67;1210;-68
2021/06/14 01:47:13;;;;;;;;;;;;;;;;;;2128238;59;1314;-70
2021/06/14 01:49:38;;;;;;;;;;;;;;;;;;2127576;66;1174;-72
2021/06/14 01:52:04;;;;;;;;;;;;;;;;;;2127557;67;1223;-69
2021/06/14 01:54:29;;;;;;;;;;;;;;;;;;2127822;67;1948;-73
2021/06/14 01:56:55;;;;;;;;;;;;;;;;;;2127553;67;1190;-73
2021/06/14 01:59:25;;;;;;;;;;;;;;;;;;2128309;67;1204;-72
2021/06/14 02:01:52;;;;;;;;;;;;;;;;;;2127460;67;1241;-69
2021/06/14 02:04:17;;;;;;;;;;;;;;;;;;2128297;67;1181;-69
2021/06/14 02:06:44;;;;;;;;;;;;;;;;;;2127785;66;1250;-72
2021/06/14 02:09:10;;;;;;;;;;;;;;;;;;2127393;67;1490;-69
2021/06/14 02:11:37;;;;;;;;;;;;;;;;;;2132968;66;1273;-70
2021/06/14 02:14:03;;;;;;;;;;;;;;;;;;2128798;66;1183;-70
2021/06/14 02:16:28;;;;;;;;;;;;;;;;;;2128312;59;1935;-71
2021/06/14 02:18:54;;;;;;;;;;;;;;;;;;2127659;67;1289;-69
2021/06/14 02:21:20;;;;;;;;;;;;;;;;;;2128567;67;1209;-70
2021/06/14 02:23:45;;;;;;;;;;;;;;;;;;2127633;67;1144;-72
2021/06/14 02:26:11;;;;;;;;;;;;;;;;;;2128446;67;1207;-69
2021/06/14 02:28:36;;;;;;;;;;;;;;;;;;2127601;59;1321;-69
2021/06/14 02:31:01;;;;;;;;;;;;;;;;;;2128551;67;1262;-74
2021/06/14 02:33:26;;;;;;;;;;;;;;;;;;2126457;67;1143;-71
2021/06/14 02:35:52;;;;;;;;;;;;;;;;;;2128704;67;1933;-70
2021/06/14 02:38:17;;;;;;;;;;;;;;;;;;2126468;67;1238;-68
2021/06/14 02:40:43;;;;;;;;;;;;;;;;;;2127609;67;2082;-71
2021/06/14 02:43:09;;;;;;;;;;;;;;;;;;2127464;67;1206;-70
2021/06/14 02:45:36;;;;;;;;;;;;;;;;;;2128359;59;1316;-71
2021/06/14 02:48:03;;;;;;;;;;;;;;;;;;2127105;67;1238;-69
2021/06/14 02:50:29;;;;;;;;;;;;;;;;;;2126480;66;1340;-71
2021/06/14 02:52:55;;;;;;;;;;;;;;;;;;2127342;67;1309;-72
2021/06/14 02:55:25;;;;;;;;;;;;;;;;;;2127113;67;1925;-68
2021/06/14 02:57:52;;;;;;;;;;;;;;;;;;2126904;67;1126;-69
2021/06/14 03:00:18;;;;;;;;;;;;;;;;;;2127078;67;1014;-69
2021/06/14 03:02:43;;;;;;;;;;;;;;;;;;2126792;67;1206;-71
2021/06/14 03:05:09;;;;;;;;;;;;;;;;;;2126942;67;1156;-70
2021/06/14 03:07:34;;;;;;;;;;;;;;;;;;2127416;59;1364;-69
2021/06/14 03:09:59;;;;;;;;;;;;;;;;;;2127356;67;1222;-69
2021/06/14 03:12:25;;;;;;;;;;;;;;;;;;2125787;67;1189;-68
2021/06/14 03:14:51;;;;;;;;;;;;;;;;;;2127087;59;1924;-71
2021/06/14 03:17:16;;;;;;;;;;;;;;;;;;2127620;67;1116;-68
2021/06/14 03:19:44;;;;;;;;;;;;;;;;;;2126694;67;1185;-69
2021/06/14 03:22:10;;;;;;;;;;;;;;;;;;2127710;67;1081;-70
2021/06/14 03:24:35;;;;;;;;;;;;;;;;;;2126597;67;1151;-71
2021/06/14 03:27:01;;;;;;;;;;;;;;;;;;2126619;67;1191;-68
2021/06/14 03:29:27;;;;;;;;;;;;;;;;;;2127318;67;1173;-68
2021/06/14 03:31:52;;;;;;;;;;;;;;;;;;2125472;67;1137;-70
2021/06/14 03:34:19;;;;;;;;;;;;;;;;;;2126819;67;1215;-70
2021/06/14 03:36:45;;;;;;;;;;;;;;;;;;2127451;67;1909;-69
2021/06/14 03:39:11;;;;;;;;;;;;;;;;;;2127093;67;1222;-70
2021/06/14 03:41:46;;;;;;;;;;;;;;;;;;2126713;67;1027;-69
2021/06/14 03:44:11;;;;;;;;;;;;;;;;;;2126980;66;1167;-67
2021/06/14 03:46:37;;;;;;;;;;;;;;;;;;2126063;59;1209;-70
2021/06/14 03:49:03;;;;;;;;;;;;;;;;;;2127356;59;1544;-68
2021/06/14 03:51:28;;;;;;;;;;;;;;;;;;2127931;66;1236;-70
2021/06/14 03:53:56;;;;;;;;;;;;;;;;;;2126663;59;1115;-68
2021/06/14 03:56:22;;;;;;;;;;;;;;;;;;2126787;67;1990;-69
2021/06/14 03:58:47;;;;;;;;;;;;;;;;;;2126651;67;1223;-70
2021/06/14 04:01:12;;;;;;;;;;;;;;;;;;2126438;67;1175;-70
2021/06/14 04:03:38;;;;;;;;;;;;;;;;;;2126885;67;1217;-71
2021/06/14 04:06:03;;;;;;;;;;;;;;;;;;2126353;67;1194;-67
2021/06/14 04:08:29;;;;;;;;;;;;;;;;;;2126518;67;1287;-69
2021/06/14 04:10:54;;;;;;;;;;;;;;;;;;2125618;67;1225;-70
2021/06/14 04:13:20;;;;;;;;;;;;;;;;;;2126374;59;1971;-69
2021/06/14 04:15:45;;;;;;;;;;;;;;;;;;2127014;59;1931;-70
2021/06/14 04:18:10;;;;;;;;;;;;;;;;;;2126125;67;1174;-71
2021/06/14 04:20:36;;;;;;;;;;;;;;;;;;2126482;67;1170;-69
2021/06/14 04:23:01;;;;;;;;;;;;;;;;;;2127290;67;1258;-68
2021/06/14 04:25:27;;;;;;;;;;;;;;;;;;2126114;67;1235;-71
2021/06/14 04:27:52;;;;;;;;;;;;;;;;;;2126233;59;1197;-70
2021/06/14 04:30:17;;;;;;;;;;;;;;;;;;2126088;59;1309;-67
2021/06/14 04:32:44;;;;;;;;;;;;;;;;;;2126885;67;1168;-70
2021/06/14 04:35:09;;;;;;;;;;;;;;;;;;2126503;67;1928;-70
2021/06/14 04:37:35;;;;;;;;;;;;;;;;;;2126907;67;1351;-70
2021/06/14 04:40:00;;;;;;;;;;;;;;;;;;2127058;67;1206;-69
2021/06/14 04:42:29;;;;;;;;;;;;;;;;;;2126566;67;1156;-70
2021/06/14 04:44:54;;;;;;;;;;;;;;;;;;2127434;59;1233;-70
2021/06/14 04:47:20;;;;;;;;;;;;;;;;;;2137281;53;1922;-68
2021/06/14 04:49:45;;;;;;;;;;;;;;;;;;2141247;59;1946;-70
2021/06/14 04:52:10;;;;;;;;;;;;;;;;;;2142248;59;1141;-70
2021/06/14 04:54:35;;;;;;;;;;;;;;;;;;2138695;66;1978;-71
2021/06/14 04:57:00;;;;;;;;;;;;;;;;;;2142099;59;1388;-71
2021/06/14 04:59:26;;;;;;;;;;;;;;;;;;2138583;67;1076;-70
2021/06/14 05:01:51;;;;;;;;;;;;;;;;;;2140164;67;1158;-70
2021/06/14 05:04:16;;;;;;;;;;;;;;;;;;2138837;59;1205;-71
2021/06/14 05:06:41;;;;;;;;;;;;;;;;;;2140268;59;1369;-71
2021/06/14 05:09:06;;;;;;;;;;;;;;;;;;2138988;59;1065;-70
2021/06/14 05:11:32;;;;;;;;;;;;;;;;;;2136247;67;1173;-70
2021/06/14 05:13:57;;;;;;;;;;;;;;;;;;2135376;67;1251;-71
2021/06/14 05:16:23;;;;;;;;;;;;;;;;;;2139790;59;1928;-70
2021/06/14 05:18:48;;;;;;;;;;;;;;;;;;2138773;59;1163;-71
2021/06/14 05:21:13;;;;;;;;;;;;;;;;;;2139698;59;1167;-70
2021/06/14 05:23:38;;;;;;;;;;;;;;;;;;2139630;67;1160;-71
2021/06/14 05:26:03;;;;;;;;;;;;;;;;;;2139047;67;1065;-68
2021/06/14 05:28:29;;;;;;;;;;;;;;;;;;2139142;67;1266;-70
2021/06/14 05:30:54;;;;;;;;;;;;;;;;;;2138534;67;1317;-71
2021/06/14 05:33:19;;;;;;;;;;;;;;;;;;2135692;67;1405;-71
2021/06/14 05:35:44;;;;;;;;;;;;;;;;;;2138632;67;1997;-68
2021/06/14 05:38:09;;;;;;;;;;;;;;;;;;2139678;67;1250;-70
2021/06/14 05:40:35;;;;;;;;;;;;;;;;;;2138991;67;1077;-71
2021/06/14 05:43:00;;;;;;;;;;;;;;;;;;2139641;59;1366;-70
2021/06/14 05:45:25;;;;;;;;;;;;;;;;;;2139531;67;1320;-70
2021/06/14 05:47:50;;;;;;;;;;;;;;;;;;2139647;59;1300;-70
2021/06/14 05:50:16;;;;;;;;;;;;;;;;;;2139615;67;1295;-70
2021/06/14 05:52:41;;;;;;;;;;;;;;;;;;2139949;67;1137;-71
2021/06/14 05:55:07;;;;;;;;;;;;;;;;;;2138803;67;1984;-70
2021/06/14 05:57:32;;;;;;;;;;;;;;;;;;2140189;67;1255;-69
2021/06/14 05:59:57;;;;;;;;;;;;;;;;;;2139867;67;1201;-69
2021/06/14 06:02:22;;;;;;;;;;;;;;;;;;2140064;67;1103;-70
2021/06/14 06:04:48;;;;;;;;;;;;;;;;;;2139872;67;1278;-70
2021/06/14 06:07:13;;;;;;;;;;;;;;;;;;2139559;59;1249;-70
2021/06/14 06:09:38;;;;;;;;;;;;;;;;;;2138210;67;1235;-70
2021/06/14 06:12:03;;;;;;;;;;;;;;;;;;2138915;67;1165;-70
2021/06/14 06:14:29;;;;;;;;;;;;;;;;;;2138826;67;1215;-69
2021/06/14 06:16:54;;;;;;;;;;;;;;;;;;2139830;67;1979;-71
2021/06/14 06:19:19;;;;;;;;;;;;;;;;;;2140135;67;1175;-68
2021/06/14 06:21:44;;;;;;;;;;;;;;;;;;2138293;67;1202;-69
2021/06/14 06:24:10;;;;;;;;;;;;;;;;;;2139405;67;1160;-69
2021/06/14 06:26:35;;;;;;;;;;;;;;;;;;2140346;67;1237;-69
2021/06/14 06:29:01;;;;;;;;;;;;;;;;;;2139885;59;1286;-69
2021/06/14 06:31:26;;;;;;;;;;;;;;;;;;2140117;67;1107;-69
2021/06/14 06:33:51;;;;;;;;;;;;;;;;;;2140020;67;1207;-69
2021/06/14 06:36:16;;;;;;;;;;;;;;;;;;2139174;67;1937;-69
2021/06/14 06:38:42;;;;;;;;;;;;;;;;;;2140811;67;1170;-69
2021/06/14 06:41:08;;;;;;;;;;;;;;;;;;2139498;59;1235;-69
2021/06/14 06:43:36;;;;;;;;;;;;;;;;;;2140842;67;1253;-68
2021/06/14 06:46:02;;;;;;;;;;;;;;;;;;2139700;67;1150;-69
2021/06/14 06:48:29;;;;;;;;;;;;;;;;;;2140219;59;1263;-69
2021/06/14 06:50:54;;;;;;;;;;;;;;;;;;2140245;67;1404;-69
2021/06/14 06:53:19;;;;;;;;;;;;;;;;;;2140360;67;2012;-69
2021/06/14 06:55:44;;;;;;;;;;;;;;;;;;2139219;67;1975;-69
2021/06/14 06:58:10;;;;;;;;;;;;;;;;;;2140355;67;1245;-69
2021/06/14 07:00:35;;;;;;;;;;;;;;;;;;2140317;67;1218;-69
2021/06/14 07:03:00;;;;;;;;;;;;;;;;;;2140762;67;1085;-68
2021/06/14 07:05:25;;;;;;;;;;;;;;;;;;2139926;67;1127;-68
2021/06/14 07:07:50;;;;;;;;;;;;;;;;;;2140703;59;1380;-68
2021/06/14 07:10:17;;;;;;;;;;;;;;;;;;2140233;67;1065;-68
2021/06/14 07:12:43;;;;;;;;;;;;;;;;;;2140537;67;1153;-68
2021/06/14 07:15:12;;;;;;;;;;;;;;;;;;2140425;59;1987;-69
2021/06/14 07:17:39;;;;;;;;;;;;;;;;;;2136964;67;1728;-68
2021/06/14 07:20:05;;;;;;;;;;;;;;;;;;2140198;67;1088;-68
2021/06/14 07:22:31;;;;;;;;;;;;;;;;;;2139833;67;1161;-68
2021/06/14 07:24:56;;;;;;;;;;;;;;;;;;2140456;67;1229;-68
2021/06/14 07:27:21;;;;;;;;;;;;;;;;;;2139091;67;1186;-68
2021/06/14 07:29:46;;;;;;;;;;;;;;;;;;2140101;67;1241;-69
2021/06/14 07:32:11;;;;;;;;;;;;;;;;;;2138158;59;1344;-68
2021/06/14 07:34:37;;;;;;;;;;;;;;;;;;2138280;67;1919;-69
2021/06/14 07:37:02;;;;;;;;;;;;;;;;;;2138645;67;1314;-68
2021/06/14 07:39:27;;;;;;;;;;;;;;;;;;2140508;67;1161;-69
2021/06/14 07:41:52;;;;;;;;;;;;;;;;;;2139269;67;1237;-69
2021/06/14 07:44:17;;;;;;;;;;;;;;;;;;2140592;67;1250;-69
2021/06/14 07:46:43;;;;;;;;;;;;;;;;;;2139324;59;1412;-69
2021/06/14 07:49:08;;;;;;;;;;;;;;;;;;2140455;67;1183;-69
2021/06/14 07:51:33;;;;;;;;;;;;;;;;;;2140030;67;1220;-70
2021/06/14 07:53:58;;;;;;;;;;;;;;;;;;2140312;67;1146;-69
2021/06/14 07:56:24;;;;;;;;;;;;;;;;;;2139495;67;2340;-69
2021/06/14 07:58:49;;;;;;;;;;;;;;;;;;2140389;67;1212;-69
2021/06/14 08:01:14;;;;;;;;;;;;;;;;;;2139460;67;1174;-69
2021/06/14 08:03:40;;;;;;;;;;;;;;;;;;2140175;67;1211;-69
2021/06/14 08:06:05;;;;;;;;;;;;;;;;;;2139837;67;1164;-69
2021/06/14 08:08:31;;;;;;;;;;;;;;;;;;2139610;67;1338;-69
2021/06/14 08:10:56;;;;;;;;;;;;;;;;;;2138409;67;1229;-69
2021/06/14 08:13:22;;;;;;;;;;;;;;;;;;2140245;67;1156;-69
2021/06/14 08:15:47;;;;;;;;;;;;;;;;;;2139848;59;1916;-69
2021/06/14 08:21:04;;;;;;;;;;;;;;;;;;2140051;59;1124;-69
2021/06/14 08:26:13;;;;;;;;;;;;;;;;;;2138704;67;1021;-70
2021/06/14 08:28:38;;;;;;;;;;;;;;;;;;2140663;59;1384;-69
2021/06/14 08:31:04;;;;;;;;;;;;;;;;;;2140440;59;1215;-69
2021/06/14 08:33:30;;;;;;;;;;;;;;;;;;2139176;67;1291;-69
2021/06/14 08:35:55;;;;;;;;;;;;;;;;;;2140189;59;1925;-69
2021/06/14 08:38:20;;;;;;;;;;;;;;;;;;2138886;67;1243;-69
2021/06/14 08:40:46;;;;;;;;;;;;;;;;;;2140223;67;1065;-69
2021/06/14 08:43:11;;;;;;;;;;;;;;;;;;2139016;67;1192;-69
2021/06/14 08:45:37;;;;;;;;;;;;;;;;;;2140360;67;1172;-69
2021/06/14 08:48:03;;;;;;;;;;;;;;;;;;2137971;59;1218;-69
2021/06/14 08:50:28;;;;;;;;;;;;;;;;;;2140043;67;1688;-69
2021/06/14 08:52:54;;;;;;;;;;;;;;;;;;2138565;67;1176;-68
2021/06/14 08:55:20;;;;;;;;;;;;;;;;;;2140238;67;1983;-69
2021/06/14 08:57:46;;;;;;;;;;;;;;;;;;2138979;67;1183;-69
2021/06/14 09:00:22;;;;;;;;;;;;;;;;;;2140279;67;1200;-70
2021/06/14 09:02:48;;;;;;;;;;;;;;;;;;2139236;67;1234;-69
2021/06/14 09:05:16;;;;;;;;;;;;;;;;;;2140459;67;1170;-69
2021/06/14 09:07:41;;;;;;;;;;;;;;;;;;2140113;59;1410;-69
2021/06/14 09:10:06;;;;;;;;;;;;;;;;;;2140026;67;1183;-69
2021/06/14 09:12:41;;;;;;;;;;;;;;;;;;2135854;67;1044;-70
2021/06/14 09:15:08;;;;;;;;;;;;;;;;;;2139850;59;1925;-69
2021/06/14 09:17:33;;;;;;;;;;;;;;;;;;2139272;67;1325;-69
2021/06/14 09:19:59;;;;;;;;;;;;;;;;;;2139580;67;1236;-69
2021/06/14 09:22:25;;;;;;;;;;;;;;;;;;2139476;67;1210;-69
2021/06/14 09:24:52;;;;;;;;;;;;;;;;;;2140458;67;1063;-69
2021/06/14 09:27:25;;;;;;;;;;;;;;;;;;2139412;67;1220;-69
2021/06/14 09:29:50;;;;;;;;;;;;;;;;;;2138807;67;1340;-69
2021/06/14 09:32:15;;;;;;;;;;;;;;;;;;2138083;67;1444;-69
2021/06/14 09:34:46;;;;;;;;;;;;;;;;;;2138430;67;1927;-69
2021/06/14 09:37:12;;;;;;;;;;;;;;;;;;2136085;67;1614;-69
2021/06/14 09:39:41;;;;;;;;;;;;;;;;;;2139974;67;1162;-69
2021/06/14 09:42:12;;;;;;;;;;;;;;;;;;2140183;67;1135;-69
2021/06/14 09:44:37;;;;;;;;;;;;;;;;;;2140005;67;1191;-69
2021/06/14 09:47:04;;;;;;;;;;;;;;;;;;2140183;59;1425;-69
2021/06/14 09:49:29;;;;;;;;;;;;;;;;;;2138795;67;1230;-68
2021/06/14 09:51:54;;;;;;;;;;;;;;;;;;2140004;67;1279;-69
2021/06/14 09:54:29;;;;;;;;;;;;;;;;;;2138627;67;1181;-69
2021/06/14 09:56:55;;;;;;;;;;;;;;;;;;2139828;67;1929;-69
2021/06/14 09:59:50;;;;;;;;;;;;;;;;;;2138984;67;1103;-69
2021/06/14 10:02:18;;;;;;;;;;;;;;;;;;2136257;67;1389;-70
2021/06/14 10:04:47;;;;;;;;;;;;;;;;;;2139894;67;1009;-70
2021/06/14 10:07:13;;;;;;;;;;;;;;;;;;2140367;67;1261;-69
2021/06/14 10:09:40;;;;;;;;;;;;;;;;;;2139148;67;1184;-67
2021/06/14 10:12:14;;;;;;;;;;;;;;;;;;2140676;67;1163;-68
2021/06/14 10:14:47;;;;;;;;;;;;;;;;;;2139841;67;1038;-67
2021/06/14 10:17:13;;;;;;;;;;;;;;;;;;2140089;67;1204;-68
2021/06/14 10:19:38;;;;;;;;;;;;;;;;;;2136199;67;1204;-67
2021/06/14 10:22:03;;;;;;;;;;;;;;;;;;2140562;59;1230;-68
2021/06/14 10:24:28;;;;;;;;;;;;;;;;;;2140060;67;1163;-67
2021/06/14 10:26:54;;;;;;;;;;;;;;;;;;2140358;61;1242;-68
2021/06/14 10:29:20;;;;;;;;;;;;;;;;;;2140015;59;1259;-67
2021/06/14 10:31:46;;;;;;;;;;;;;;;;;;2140563;67;1146;-68
2021/06/14 10:34:12;;;;;;;;;;;;;;;;;;2140501;67;1169;-68
2021/06/14 10:36:39;;;;;;;;;;;;;;;;;;2140596;67;1910;-68
2021/06/14 10:39:05;;;;;;;;;;;;;;;;;;2139010;67;1179;-67
2021/06/14 10:41:30;;;;;;;;;;;;;;;;;;2140571;67;1159;-67
2021/06/14 10:43:56;;;;;;;;;;;;;;;;;;2140307;67;1233;-68
2021/06/14 10:46:22;;;;;;;;;;;;;;;;;;2140558;67;1226;-70
2021/06/14 10:48:52;;;;;;;;;;;;;;;;;;2140985;59;2285;-66
2021/06/14 10:51:18;;;;;;;;;;;;;;;;;;2136459;59;1657;-66
2021/06/14 10:53:50;;;;;;;;;;;;;;;;;;2140610;67;1302;-69
2021/06/14 10:56:16;;;;;;;;;;;;;;;;;;2139988;67;1988;-68
2021/06/14 10:58:45;;;;;;;;;;;;;;;;;;2139938;61;1313;-69
2021/06/14 11:01:15;;;;;;;;;;;;;;;;;;2139759;67;1175;-69
2021/06/14 11:03:47;;;;;;;;;;;;;;;;;;2139735;67;1160;-70
2021/06/14 11:06:21;;;;;;;;;;;;;;;;;;2140467;67;1437;-70
2021/06/14 11:08:57;;;;;;;;;;;;;;;;;;2140866;59;1755;-71
2021/06/14 11:11:23;;;;;;;;;;;;;;;;;;2139265;67;1227;-70
2021/06/14 11:13:49;;;;;;;;;;;;;;;;;;2140233;67;1203;-71
2021/06/14 11:16:14;;;;;;;;;;;;;;;;;;2140177;67;1925;-72
2021/06/14 11:18:40;;;;;;;;;;;;;;;;;;2140470;67;1338;-72
2021/06/14 11:21:06;;;;;;;;;;;;;;;;;;2139224;67;1259;-70
2021/06/14 11:23:31;;;;;;;;;;;;;;;;;;2140946;67;1234;-71
2021/06/14 11:25:58;;;;;;;;;;;;;;;;;;2139022;67;1176;-70
2021/06/14 11:28:32;;;;;;;;;;;;;;;;;;2140795;67;1239;-71
2021/06/14 11:30:58;;;;;;;;;;;;;;;;;;2139268;67;1188;-70
2021/06/14 11:33:25;;;;;;;;;;;;;;;;;;2139231;67;1165;-71
2021/06/14 11:35:50;;;;;;;;;;;;;;;;;;2139869;67;1967;-70
2021/06/14 11:38:17;;;;;;;;;;;;;;;;;;2140483;67;1290;-71
2021/06/14 11:40:49;;;;;;;;;;;;;;;;;;2139514;67;1077;-72
2021/06/14 11:43:14;;;;;;;;;;;;;;;;;;2140528;67;1136;-70
2021/06/14 11:45:44;;;;;;;;;;;;;;;;;;2140571;67;1089;-72
2021/06/14 11:48:20;;;;;;;;;;;;;;;;;;2136760;59;1431;-68
2021/06/14 11:50:45;;;;;;;;;;;;;;;;;;2139427;67;1180;-68
2021/06/14 11:53:11;;;;;;;;;;;;;;;;;;2140693;67;1079;-71
2021/06/14 11:55:37;;;;;;;;;;;;;;;;;;2140068;67;1921;-70
2021/06/14 11:58:03;;;;;;;;;;;;;;;;;;2141053;67;1348;-71
2021/06/14 12:00:33;;;;;;;;;;;;;;;;;;2140708;67;1832;-70
2021/06/14 12:02:59;;;;;;;;;;;;;;;;;;2140915;67;1045;-70
2021/06/14 12:05:30;;;;;;;;;;;;;;;;;;2141057;67;1428;-69
2021/06/14 12:07:56;;;;;;;;;;;;;;;;;;2140046;67;1552;-68
2021/06/14 12:10:21;;;;;;;;;;;;;;;;;;2139575;67;1105;-70
2021/06/14 12:12:59;;;;;;;;;;;;;;;;;;2137033;67;1254;-71
2021/06/14 12:15:24;;;;;;;;;;;;;;;;;;2140693;67;1945;-71
2021/06/14 12:17:51;;;;;;;;;;;;;;;;;;2140838;67;1180;-71
2021/06/14 12:20:21;;;;;;;;;;;;;;;;;;2139354;67;1231;-69
2021/06/14 12:22:46;;;;;;;;;;;;;;;;;;2140658;59;1547;-71
2021/06/14 12:25:12;;;;;;;;;;;;;;;;;;2140807;67;1100;-71
2021/06/14 12:27:38;;;;;;;;;;;;;;;;;;2139812;67;1446;-70
2021/06/14 12:30:05;;;;;;;;;;;;;;;;;;2140588;59;1550;-70
2021/06/14 12:32:32;;;;;;;;;;;;;;;;;;2140551;67;1227;-72
2021/06/14 12:34:59;;;;;;;;;;;;;;;;;;2140332;67;1929;-71
2021/06/14 12:37:25;;;;;;;;;;;;;;;;;;2139553;67;1207;-68
2021/06/14 12:39:59;;;;;;;;;;;;;;;;;;2141063;67;1410;-71
2021/06/14 12:42:24;;;;;;;;;;;;;;;;;;2137956;67;1231;-70
2021/06/14 12:44:55;;;;;;;;;;;;;;;;;;2140561;67;1201;-71
2021/06/14 12:47:21;;;;;;;;;;;;;;;;;;2139254;59;1538;-70
2021/06/14 12:49:50;;;;;;;;;;;;;;;;;;2139778;67;1678;-71
2021/06/14 12:52:16;;;;;;;;;;;;;;;;;;2140204;67;1254;-75
2021/06/14 12:54:41;;;;;;;;;;;;;;;;;;2140483;67;1168;-67
2021/06/14 12:57:07;;;;;;;;;;;;;;;;;;2139571;67;1978;-70
2021/06/14 12:59:32;;;;;;;;;;;;;;;;;;2140615;67;1238;-70
2021/06/14 13:01:57;;;;;;;;;;;;;;;;;;2140039;67;1207;-69
2021/06/14 13:04:24;;;;;;;;;;;;;;;;;;2140556;67;1151;-72
2021/06/14 13:06:50;;;;;;;;;;;;;;;;;;2140199;59;1297;-70
2021/06/14 13:09:15;;;;;;;;;;;;;;;;;;2140983;67;1081;-71
2021/06/14 13:11:44;;;;;;;;;;;;;;;;;;2140126;59;1144;-68
2021/06/14 13:14:10;;;;;;;;;;;;;;;;;;2140338;67;1084;-72
2021/06/14 13:16:43;;;;;;;;;;;;;;;;;;2138766;59;1976;-72
2021/06/14 13:19:08;;;;;;;;;;;;;;;;;;2139918;67;1132;-71
2021/06/14 13:21:35;;;;;;;;;;;;;;;;;;2140042;67;1144;-71
2021/06/14 13:24:04;;;;;;;;;;;;;;;;;;2138985;67;1168;-70
2021/06/14 13:26:40;;;;;;;;;;;;;;;;;;2140768;67;1286;-70
2021/06/14 13:29:13;;;;;;;;;;;;;;;;;;2138973;67;1189;-71
2021/06/14 13:31:41;;;;;;;;;;;;;;;;;;2139214;59;1194;-70
2021/06/14 13:34:10;;;;;;;;;;;;;;;;;;2139006;67;1172;-70
2021/06/14 13:36:37;;;;;;;;;;;;;;;;;;2138948;67;1907;-69
2021/06/14 13:39:05;;;;;;;;;;;;;;;;;;2139432;67;1155;-70
2021/06/14 13:41:30;;;;;;;;;;;;;;;;;;2140900;67;1226;-70
2021/06/14 13:44:07;;;;;;;;;;;;;;;;;;2139942;67;1282;-70
2021/06/14 13:46:43;;;;;;;;;;;;;;;;;;2140517;59;1190;-71
2021/06/14 13:49:09;;;;;;;;;;;;;;;;;;2135798;59;1305;-71
2021/06/14 13:51:34;;;;;;;;;;;;;;;;;;2141376;67;1167;-71
2021/06/14 13:54:03;;;;;;;;;;;;;;;;;;2140741;67;1243;-71
2021/06/14 13:56:40;;;;;;;;;;;;;;;;;;2140610;67;1921;-70
2021/06/14 13:59:16;;;;;;;;;;;;;;;;;;2135664;67;1387;-71
2021/06/14 14:01:41;;;;;;;;;;;;;;;;;;2140494;67;1215;-72
2021/06/14 14:04:07;;;;;;;;;;;;;;;;;;2138809;67;1251;-71
2021/06/14 14:06:33;;;;;;;;;;;;;;;;;;2140400;67;1747;-71
2021/06/14 14:08:59;;;;;;;;;;;;;;;;;;2140170;67;1317;-67
2021/06/14 14:11:25;;;;;;;;;;;;;;;;;;2139232;67;1247;-70
2021/06/14 14:13:59;;;;;;;;;;;;;;;;;;2139495;67;1167;-69
2021/06/14 14:16:25;;;;;;;;;;;;;;;;;;2140566;67;1924;-69
2021/06/14 14:18:50;;;;;;;;;;;;;;;;;;2140215;67;1301;-70
2021/06/14 14:21:15;;;;;;;;;;;;;;;;;;2139082;59;1568;-70
2021/06/14 14:23:40;;;;;;;;;;;;;;;;;;2135515;59;2325;-69
2021/06/14 14:26:05;;;;;;;;;;;;;;;;;;2137902;67;2059;-70
2021/06/14 14:28:31;;;;;;;;;;;;;;;;;;2139825;59;1774;-67
2021/06/14 14:30:57;;;;;;;;;;;;;;;;;;2137914;67;2273;-71
2021/06/14 14:33:23;;;;;;;;;;;;;;;;;;2138643;59;1988;-72
2021/06/14 14:35:55;;;;;;;;;;;;;;;;;;2137869;59;1984;-71
2021/06/14 14:38:20;;;;;;;;;;;;;;;;;;2135203;59;1979;-71
2021/06/14 14:40:46;;;;;;;;;;;;;;;;;;2137776;59;1937;-71
2021/06/14 14:43:12;;;;;;;;;;;;;;;;;;2139882;67;1941;-71
2021/06/14 14:45:37;;;;;;;;;;;;;;;;;;2140373;67;1350;-71
2021/06/14 14:48:04;;;;;;;;;;;;;;;;;;2138753;59;2425;-71
2021/06/14 14:50:30;;;;;;;;;;;;;;;;;;2140607;59;1797;-72
2021/06/14 14:52:55;;;;;;;;;;;;;;;;;;2138494;59;1700;-70
2021/06/14 14:55:22;;;;;;;;;;;;;;;;;;2138326;59;2128;-68
2021/06/14 14:57:47;;;;;;;;;;;;;;;;;;2138059;67;1899;-72
2021/06/14 15:00:13;;;;;;;;;;;;;;;;;;2139358;59;1404;-72
2021/06/14 15:02:38;;;;;;;;;;;;;;;;;;2138840;59;2564;-69
2021/06/14 15:05:03;;;;;;;;;;;;;;;;;;2137796;59;2607;-70
2021/06/14 15:07:29;;;;;;;;;;;;;;;;;;2138675;59;2245;-72
2021/06/14 15:09:54;;;;;;;;;;;;;;;;;;2139711;67;1341;-71
2021/06/14 15:12:19;;;;;;;;;;;;;;;;;;2139375;67;1455;-70
2021/06/14 15:14:44;;;;;;;;;;;;;;;;;;2137150;59;1980;-69
2021/06/14 15:17:09;;;;;;;;;;;;;;;;;;2139956;67;1994;-72
2021/06/14 15:19:37;;;;;;;;;;;;;;;;;;2140912;67;989;-67
2021/06/14 15:22:03;;;;;;;;;;;;;;;;;;2139168;59;1081;-69
2021/06/14 15:24:28;;;;;;;;;;;;;;;;;;2140152;67;1360;-69
2021/06/14 15:26:53;;;;;;;;;;;;;;;;;;2141233;67;1234;-67
2021/06/14 15:29:18;;;;;;;;;;;;;;;;;;2140877;67;1225;-69
2021/06/14 15:31:43;;;;;;;;;;;;;;;;;;2140366;67;1354;-70
2021/06/14 15:34:09;;;;;;;;;;;;;;;;;;2139015;67;1076;-71
2021/06/14 15:36:34;;;;;;;;;;;;;;;;;;2141287;67;1913;-69
2021/06/14 15:38:59;;;;;;;;;;;;;;;;;;2139668;67;1140;-69
2021/06/14 15:41:25;;;;;;;;;;;;;;;;;;2141286;67;1233;-70
2021/06/14 15:43:54;;;;;;;;;;;;;;;;;;2139251;67;2181;-70
2021/06/14 15:46:20;;;;;;;;;;;;;;;;;;2140102;67;1544;-70
2021/06/14 15:48:45;;;;;;;;;;;;;;;;;;2139611;59;1540;-70
2021/06/14 15:51:11;;;;;;;;;;;;;;;;;;2140947;59;1267;-71
2021/06/14 15:53:36;;;;;;;;;;;;;;;;;;2136713;59;1885;-69
2021/06/14 15:56:02;;;;;;;;;;;;;;;;;;2137978;59;2376;-70
2021/06/14 15:58:27;;;;;;;;;;;;;;;;;;2140178;67;1180;-71
2021/06/14 16:00:53;;;;;;;;;;;;;;;;;;2139761;67;1147;-69
2021/06/14 16:03:18;;;;;;;;;;;;;;;;;;2139082;59;1823;-70
2021/06/14 16:05:44;;;;;;;;;;;;;;;;;;2140746;67;1304;-71
2021/06/14 16:08:10;;;;;;;;;;;;;;;;;;2139682;67;1358;-71
2021/06/14 16:10:35;;;;;;;;;;;;;;;;;;2137012;67;1298;-70
2021/06/14 16:13:00;;;;;;;;;;;;;;;;;;2139843;67;1283;-68
2021/06/14 16:15:25;;;;;;;;;;;;;;;;;;2140407;59;1975;-71
2021/06/14 16:17:51;;;;;;;;;;;;;;;;;;2136771;59;2010;-70
2021/06/14 16:20:17;;;;;;;;;;;;;;;;;;2139074;59;1498;-71
2021/06/14 16:22:43;;;;;;;;;;;;;;;;;;2140412;59;2111;-69
2021/06/14 16:25:09;;;;;;;;;;;;;;;;;;2140945;59;1558;-71
2021/06/14 16:27:35;;;;;;;;;;;;;;;;;;2141465;67;1263;-69
2021/06/14 16:30:00;;;;;;;;;;;;;;;;;;2139791;67;1322;-69
2021/06/14 16:32:25;;;;;;;;;;;;;;;;;;2141065;67;1180;-69
2021/06/14 16:34:50;;;;;;;;;;;;;;;;;;2139064;67;1224;-71
2021/06/14 16:37:16;;;;;;;;;;;;;;;;;;2140917;67;1923;-70
2021/06/14 16:39:41;;;;;;;;;;;;;;;;;;2140866;67;1321;-71
2021/06/14 16:42:06;;;;;;;;;;;;;;;;;;2140832;67;1186;-70
2021/06/14 16:44:32;;;;;;;;;;;;;;;;;;2140819;67;1191;-68
2021/06/14 16:46:57;;;;;;;;;;;;;;;;;;2140374;59;2147;-70
2021/06/14 16:49:23;;;;;;;;;;;;;;;;;;2139259;59;1297;-70
2021/06/14 16:51:49;;;;;;;;;;;;;;;;;;2140127;59;1619;-69
2021/06/14 16:54:18;;;;;;;;;;;;;;;;;;2136524;59;1344;-70
2021/06/14 16:56:44;;;;;;;;;;;;;;;;;;2140231;59;1992;-70
2021/06/14 16:59:09;;;;;;;;;;;;;;;;;;2138447;67;1701;-70
2021/06/14 17:01:34;;;;;;;;;;;;;;;;;;2137762;67;1157;-70
2021/06/14 17:03:59;;;;;;;;;;;;;;;;;;2138751;59;1724;-70